Time;durP1;ratioP1;P1;durP2;ratioP2;P2;SDS_P1;SDS_P2;PMS_P1;PMS_P2;Temp;Humidity;BMP_temperature;BMP_pressure;BME280_temperature;BME280_humidity;BME280_pressure;Samples;Min_cycle;Max_cycle;Signal;HPM_P1;HPM_P2
2023/04/20 01:10:13;;;;;;;0.65;0.65;;;22.60;43.00;;;;;;6199831;28;20047;-43
2023/04/20 01:13:15;;;;;;;0.60;0.50;;;22.70;44.40;;;;;;6189216;28;20059;-46
2023/04/20 01:16:17;;;;;;;0.68;0.68;;;22.50;44.30;;;;;;6176896;28;20046;-46
2023/04/20 01:19:20;;;;;;;0.55;0.55;;;22.50;44.40;;;;;;6177352;28;20063;-44
2023/04/20 01:22:22;;;;;;;0.82;0.60;;;22.40;44.20;;;;;;6177245;28;20035;-46
2023/04/20 01:25:24;;;;;;;0.60;0.50;;;22.30;44.10;;;;;;6176546;28;20047;-48
2023/04/20 01:28:27;;;;;;;0.73;0.68;;;22.60;44.20;;;;;;6176544;28;20038;-44
2023/04/20 01:31:28;;;;;;;;;;;22.60;44.20;;;;;;6177182;28;20047;-44
2023/04/20 01:34:32;;;;;;;0.60;0.60;;;22.30;44.30;;;;;;6176883;28;20452;-44
2023/04/20 01:37:34;;;;;;;;;;;22.20;44.20;;;;;;6177267;28;20514;-48
2023/04/20 01:40:38;;;;;;;0.60;0.60;;;22.30;44.30;;;;;;6176746;28;19994;-49
2023/04/20 01:43:40;;;;;;;0.50;0.50;;;22.40;44.10;;;;;;6176870;28;20078;-47
2023/04/20 01:46:43;;;;;;;0.70;0.68;;;22.30;43.90;;;;;;6176697;28;20042;-45
2023/04/20 01:49:44;;;;;;;;;;;22.60;44.30;;;;;;6177101;28;20039;-46
2023/04/20 01:52:46;;;;;;;0.60;0.60;;;22.00;44.80;;;;;;6176935;28;19962;-43
2023/04/20 01:55:48;;;;;;;0.70;0.60;;;22.60;44.40;;;;;;6176616;28;20039;-45
2023/04/20 01:58:50;;;;;;;0.85;0.60;;;22.30;44.00;;;;;;6175369;28;20143;-43
2023/04/20 02:01:52;;;;;;;0.52;0.45;;;22.50;44.10;;;;;;6176689;28;20047;-43
2023/04/20 02:04:54;;;;;;;0.45;0.40;;;22.40;44.10;;;;;;6176415;28;20410;-44
2023/04/20 02:07:56;;;;;;;0.50;0.50;;;22.40;44.00;;;;;;6176342;28;20054;-47
2023/04/20 02:10:58;;;;;;;0.70;0.70;;;22.20;43.80;;;;;;6176590;28;20051;-47
2023/04/20 02:14:00;;;;;;;0.50;0.50;;;22.40;44.00;;;;;;6176523;28;20042;-46
2023/04/20 02:17:01;;;;;;;0.60;0.60;;;22.50;43.70;;;;;;6176169;28;20050;-45
2023/04/20 02:20:06;;;;;;;0.77;0.68;;;22.10;43.90;;;;;;6175608;28;20130;-48
2023/04/20 02:23:08;;;;;;;0.73;0.73;;;21.90;43.50;;;;;;6174748;28;20502;-48
2023/04/20 02:26:11;;;;;;;0.50;0.50;;;22.40;43.70;;;;;;6176042;28;20110;-45
2023/04/20 02:29:15;;;;;;;0.47;0.47;;;22.30;43.70;;;;;;6175985;28;20047;-50
2023/04/20 02:32:17;;;;;;;0.63;0.60;;;22.00;43.40;;;;;;6175934;28;20051;-45
2023/04/20 02:35:18;;;;;;;;;;;22.00;43.60;;;;;;6176216;28;20049;-43
2023/04/20 02:38:20;;;;;;;0.60;0.60;;;22.00;43.70;;;;;;6175809;28;19922;-44
2023/04/20 02:41:22;;;;;;;0.68;0.50;;;22.20;43.70;;;;;;6175625;28;20078;-45
2023/04/20 02:44:23;;;;;;;0.50;0.47;;;22.40;43.70;;;;;;6176107;28;20047;-47
2023/04/20 02:47:25;;;;;;;0.60;0.60;;;22.20;43.60;;;;;;6175558;28;20097;-45
2023/04/20 02:50:28;;;;;;;0.73;0.50;;;22.00;43.50;;;;;;6175862;28;20491;-43
2023/04/20 02:58:39;;;;;;;0.70;0.70;;;22.30;42.00;;;;;;6175374;28;20047;-43
2023/04/20 03:01:49;;;;;;;0.60;0.50;;;21.80;43.60;;;;;;6175412;28;20069;-47
2023/04/20 03:04:55;;;;;;;0.60;0.60;;;21.70;43.50;;;;;;6175340;28;20046;-48
2023/04/20 03:07:58;;;;;;;0.70;0.70;;;22.00;43.70;;;;;;6175062;28;20050;-47
2023/04/20 03:11:01;;;;;;;0.60;0.60;;;22.00;43.90;;;;;;6175370;28;20455;-48
2023/04/20 03:14:03;;;;;;;0.65;0.65;;;22.10;44.00;;;;;;6174877;28;20133;-46
2023/04/20 03:17:06;;;;;;;1.05;0.95;;;22.20;43.70;;;;;;6175134;28;20534;-46
2023/04/20 03:20:08;;;;;;;;;;;21.70;43.50;;;;;;6175615;28;20046;-43
2023/04/20 03:23:10;;;;;;;0.70;0.70;;;22.10;43.90;;;;;;6175007;28;19922;-44
2023/04/20 03:26:12;;;;;;;1.05;0.90;;;22.00;43.60;;;;;;6174796;28;20081;-45
2023/04/20 03:29:31;;;;;;;1.10;0.95;;;22.20;43.60;;;;;;6175083;28;20058;-45
2023/04/20 03:32:34;;;;;;;0.80;0.73;;;22.00;43.50;;;;;;6174816;28;20050;-43
2023/04/20 03:35:38;;;;;;;0.88;0.77;;;22.30;43.70;;;;;;6174732;28;20043;-41
2023/04/20 03:38:39;;;;;;;1.20;0.98;;;21.70;43.30;;;;;;6174950;28;20388;-43
2023/04/20 03:41:41;;;;;;;;;;;21.70;43.20;;;;;;6175064;28;20043;-45
2023/04/20 03:44:43;;;;;;;0.60;0.57;;;21.80;43.40;;;;;;6175426;28;19934;-44
2023/04/20 03:47:45;;;;;;;0.65;0.65;;;22.00;43.20;;;;;;6174931;28;20046;-44
2023/04/20 03:50:46;;;;;;;;;;;21.70;43.10;;;;;;6175112;28;20047;-47
2023/04/20 03:53:47;;;;;;;0.80;0.80;;;21.80;43.40;;;;;;6174488;28;19961;-44
2023/04/20 03:56:49;;;;;;;;;;;21.80;43.10;;;;;;6175105;28;20083;-43
2023/04/20 03:59:52;;;;;;;0.70;0.63;;;21.80;43.20;;;;;;6174454;28;19929;-43
2023/04/20 04:02:56;;;;;;;1.02;0.88;;;21.80;42.90;;;;;;6174292;28;20042;-45
2023/04/20 04:06:02;;;;;;;0.85;0.75;;;22.10;42.80;;;;;;6174411;28;20047;-44
2023/04/20 04:09:08;;;;;;;0.80;0.75;;;22.00;42.50;;;;;;6176257;28;20047;-47
2023/04/20 04:12:09;;;;;;;0.75;0.60;;;21.70;42.10;;;;;;6179090;28;20515;-45
2023/04/20 04:15:12;;;;;;;0.80;0.70;;;21.80;42.10;;;;;;6178560;28;20105;-43
2023/04/20 04:18:25;;;;;;;1.20;0.60;;;21.70;41.90;;;;;;6178405;28;20053;-44
2023/04/20 04:21:28;;;;;;;0.85;0.70;;;22.00;42.00;;;;;;6178915;28;20407;-43
2023/04/20 04:24:37;;;;;;;0.88;0.88;;;21.90;41.90;;;;;;6178347;28;20054;-42
2023/04/20 04:27:42;;;;;;;0.93;0.85;;;21.90;41.60;;;;;;6178659;28;20073;-46
2023/04/20 04:30:46;;;;;;;0.80;0.60;;;21.90;41.60;;;;;;6178553;28;20045;-42
2023/04/20 04:33:48;;;;;;;0.80;0.70;;;22.10;41.50;;;;;;6178296;28;20105;-43
2023/04/20 04:36:59;;;;;;;0.82;0.73;;;21.80;41.20;;;;;;6178089;28;20454;-44
2023/04/20 04:40:13;;;;;;;0.70;0.63;;;22.00;41.20;;;;;;6176889;28;20047;-44
2023/04/20 04:43:15;;;;;;;0.68;0.63;;;21.70;40.80;;;;;;6176299;28;20129;-46
2023/04/20 04:46:27;;;;;;;0.68;0.68;;;21.60;40.60;;;;;;6177968;28;20109;-44
2023/04/20 04:49:31;;;;;;;0.93;0.77;;;21.90;40.60;;;;;;6177809;28;20178;-42
2023/04/20 04:52:34;;;;;;;0.73;0.70;;;21.80;40.80;;;;;;6178038;28;20097;-45
2023/04/20 04:55:38;;;;;;;1.08;0.70;;;21.50;40.30;;;;;;6177602;28;20391;-44
2023/04/20 04:58:39;;;;;;;1.00;0.90;;;22.10;40.50;;;;;;6177593;28;20093;-43
2023/04/20 05:01:44;;;;;;;0.75;0.60;;;21.90;40.70;;;;;;6159972;28;20043;-42
2023/04/20 05:04:46;;;;;;;1.05;0.70;;;21.90;40.30;;;;;;6177491;28;20046;-46
2023/04/20 05:07:49;;;;;;;0.65;0.50;;;21.60;39.90;;;;;;6177345;28;20047;-45
2023/04/20 05:10:50;;;;;;;;;;;22.00;40.20;;;;;;6178134;28;20399;-42
2023/04/20 05:13:52;;;;;;;0.88;0.73;;;21.60;40.20;;;;;;6177436;28;19922;-44
2023/04/20 05:16:53;;;;;;;;;;;22.00;40.30;;;;;;6177535;28;20062;-44
2023/04/20 05:19:55;;;;;;;0.70;0.70;;;21.90;40.40;;;;;;6177105;28;19929;-45
2023/04/20 05:22:56;;;;;;;;;;;21.80;40.00;;;;;;6177571;28;20047;-42
2023/04/20 05:25:58;;;;;;;0.60;0.55;;;21.70;40.30;;;;;;6177200;28;19969;-46
2023/04/20 05:28:59;;;;;;;;;;;21.50;39.80;;;;;;6178034;28;20046;-46
2023/04/20 05:32:01;;;;;;;0.80;0.52;;;21.80;40.00;;;;;;6177035;28;19921;-45
2023/04/20 05:35:03;;;;;;;0.80;0.68;;;21.80;39.80;;;;;;6176798;28;20544;-44
2023/04/20 05:38:07;;;;;;;0.80;0.80;;;21.50;39.20;;;;;;6177444;28;20054;-46
2023/04/20 05:41:09;;;;;;;0.65;0.63;;;21.60;39.20;;;;;;6177018;28;20047;-44
2023/04/20 05:44:10;;;;;;;;;;;21.70;38.80;;;;;;6177657;28;20077;-42
2023/04/20 05:47:12;;;;;;;0.70;0.55;;;21.70;39.20;;;;;;6176983;28;19926;-44
2023/04/20 05:50:14;;;;;;;0.63;0.63;;;21.90;38.80;;;;;;6176872;28;20051;-46
2023/04/20 05:53:15;;;;;;;;;;;21.40;38.50;;;;;;6177040;28;20495;-45
2023/04/20 05:56:18;;;;;;;0.70;0.70;;;21.40;38.60;;;;;;6176840;28;19922;-44
2023/04/20 05:59:20;;;;;;;1.00;0.70;;;21.70;38.50;;;;;;6176938;28;20039;-43
2023/04/20 06:02:22;;;;;;;0.65;0.65;;;21.50;38.10;;;;;;6176325;28;20560;-44
2023/04/20 06:05:24;;;;;;;0.70;0.60;;;21.70;38.10;;;;;;6176159;28;20503;-46
2023/04/20 06:08:26;;;;;;;0.77;0.50;;;21.60;37.70;;;;;;6176429;28;20054;-44
2023/04/20 06:11:27;;;;;;;;;;;21.20;37.50;;;;;;6176618;28;20053;-45
2023/04/20 06:14:29;;;;;;;0.70;0.52;;;21.80;38.00;;;;;;6176079;28;19922;-43
2023/04/20 06:17:36;;;;;;;0.85;0.60;;;21.70;37.90;;;;;;6176096;28;20443;-44
2023/04/20 06:20:38;;;;;;;1.08;0.68;;;21.60;37.30;;;;;;6175957;28;20133;-42
2023/04/20 06:23:39;;;;;;;0.60;0.60;;;21.70;37.40;;;;;;6175367;28;20438;-43
2023/04/20 06:26:41;;;;;;;;;;;21.60;37.10;;;;;;6176482;28;20039;-41
2023/04/20 06:29:42;;;;;;;0.60;0.50;;;22.00;37.80;;;;;;6174959;28;19922;-44
2023/04/20 06:32:44;;;;;;;;;;;21.60;37.20;;;;;;6175670;28;20129;-46
2023/04/20 06:35:46;;;;;;;0.60;0.60;;;21.70;37.50;;;;;;6176461;28;19922;-44
2023/04/20 06:38:47;;;;;;;;;;;21.50;37.00;;;;;;6176007;28;20039;-44
2023/04/20 06:41:49;;;;;;;0.80;0.68;;;21.80;37.60;;;;;;6175285;28;20271;-43
2023/04/20 06:44:50;;;;;;;;;;;21.30;37.10;;;;;;6176303;28;20412;-44
2023/04/20 06:47:52;;;;;;;0.70;0.60;;;22.10;37.60;;;;;;6175274;28;19922;-42
2023/04/20 06:50:54;;;;;;;1.00;0.60;;;21.40;36.80;;;;;;6175167;28;20096;-45
2023/04/20 06:53:55;;;;;;;;;;;21.70;36.70;;;;;;6175714;28;20058;-45
2023/04/20 06:56:57;;;;;;;0.65;0.50;;;21.70;36.80;;;;;;6174936;28;20378;-45
2023/04/20 07:00:00;;;;;;;0.57;0.50;;;21.60;36.70;;;;;;6174778;28;20047;-50
2023/04/20 07:03:02;;;;;;;0.93;0.82;;;21.40;36.40;;;;;;6173717;28;20039;-48
2023/04/20 07:06:04;;;;;;;0.82;0.55;;;21.50;36.50;;;;;;6174909;28;20047;-46
2023/04/20 07:09:07;;;;;;;0.95;0.75;;;21.60;35.90;;;;;;6174555;28;20074;-45
2023/04/20 07:12:14;;;;;;;0.70;0.55;;;21.80;36.20;;;;;;6175123;28;20391;-50
2023/04/20 07:15:15;;;;;;;0.63;0.63;;;21.50;36.10;;;;;;6175140;28;20038;-49
2023/04/20 07:18:17;;;;;;;;;;;21.70;36.70;;;;;;6175778;28;20038;-52
2023/04/20 07:21:19;;;;;;;1.15;0.63;;;21.90;36.60;;;;;;6174828;28;19922;-49
2023/04/20 07:24:21;;;;;;;;;;;22.10;36.50;;;;;;6175155;28;20051;-53
2023/04/20 07:27:26;;;;;;;1.13;0.50;;;21.60;36.20;;;;;;6174642;28;19929;-52
2023/04/20 07:30:30;;;;;;;0.65;0.50;;;22.00;36.20;;;;;;6174701;28;20047;-50
2023/04/20 07:33:34;;;;;;;1.13;0.50;;;22.40;35.90;;;;;;6174828;28;20490;-42
2023/04/20 07:36:37;;;;;;;0.88;0.60;;;22.00;35.60;;;;;;6174415;28;20094;-45
2023/04/20 07:39:39;;;;;;;0.98;0.88;;;22.10;34.00;;;;;;6174136;28;20484;-47
2023/04/20 07:42:44;;;;;;;;;;;21.90;35.60;;;;;;6181185;28;20043;-51
2023/04/20 07:45:47;;;;;;;0.60;0.60;;;21.80;34.00;;;;;;6348702;23;19921;-50
2023/04/20 07:48:49;;;;;;;0.75;0.70;;;22.00;35.90;;;;;;6174466;28;20114;-49
2023/04/20 07:51:51;;;;;;;0.68;0.60;;;22.20;35.40;;;;;;6174603;28;20038;-51
2023/04/20 07:54:52;;;;;;;0.77;0.68;;;22.10;35.40;;;;;;6174083;28;20438;-53
2023/04/20 07:57:56;;;;;;;0.75;0.63;;;21.80;34.80;;;;;;6174504;28;20125;-52
2023/04/20 08:00:57;;;;;;;0.57;0.47;;;22.20;35.00;;;;;;6174827;28;20039;-51
2023/04/20 08:04:01;;;;;;;;;;;22.20;34.90;;;;;;6174481;28;20061;-49
2023/04/20 08:07:03;;;;;;;1.00;0.52;;;22.10;35.10;;;;;;6173158;28;19926;-45
2023/04/20 08:10:04;;;;;;;;;;;21.80;34.70;;;;;;6174591;28;20047;-47
2023/04/20 08:13:06;;;;;;;0.65;0.57;;;22.30;34.90;;;;;;6174067;28;20294;-48
2023/04/20 08:16:09;;;;;;;0.60;0.50;;;22.20;33.40;;;;;;6174011;28;20043;-46
2023/04/20 08:19:11;;;;;;;0.90;0.80;;;22.00;34.70;;;;;;6174711;28;20051;-48
2023/04/20 08:22:13;;;;;;;0.68;0.60;;;22.00;33.90;;;;;;6174346;28;20379;-44
2023/04/20 08:25:14;;;;;;;;;;;22.30;34.20;;;;;;6174927;28;20031;-45
2023/04/20 08:28:17;;;;;;;0.80;0.60;;;22.30;34.40;;;;;;6173721;28;19994;-49
2023/04/20 08:31:34;;;;;;;0.73;0.52;;;22.40;34.20;;;;;;6173339;28;20054;-45
2023/04/20 08:34:37;;;;;;;0.73;0.43;;;22.10;33.70;;;;;;6173031;28;20047;-45
2023/04/20 08:37:40;;;;;;;0.68;0.57;;;22.20;33.70;;;;;;6173452;28;20038;-46
2023/04/20 08:40:45;;;;;;;0.55;0.55;;;22.40;33.80;;;;;;6173578;28;20395;-49
2023/04/20 08:43:49;;;;;;;0.70;0.57;;;22.00;33.60;;;;;;6172202;28;20054;-43
2023/04/20 08:46:51;;;;;;;0.85;0.60;;;22.60;33.90;;;;;;6172939;28;20057;-50
2023/04/20 08:49:53;;;;;;;0.90;0.70;;;22.20;34.00;;;;;;6172886;28;20054;-44
2023/04/20 08:52:55;;;;;;;0.80;0.65;;;22.20;33.70;;;;;;6156031;28;20038;-45
2023/04/20 08:55:57;;;;;;;0.80;0.60;;;22.50;34.10;;;;;;6177573;28;20043;-43
2023/04/20 08:58:59;;;;;;;1.45;0.70;;;22.30;34.10;;;;;;6176998;28;20047;-45
2023/04/20 09:02:09;;;;;;;0.60;0.55;;;22.30;33.90;;;;;;6177062;28;20051;-46
2023/04/20 09:05:12;;;;;;;0.60;0.57;;;22.40;33.90;;;;;;6175521;28;20510;-45
2023/04/20 09:08:13;;;;;;;0.80;0.70;;;22.20;33.90;;;;;;6176817;28;20043;-47
2023/04/20 09:11:23;;;;;;;1.10;0.70;;;22.50;34.20;;;;;;6179908;28;20047;-48
2023/04/20 09:14:25;;;;;;;0.80;0.73;;;22.30;34.00;;;;;;6177016;28;20043;-48
2023/04/20 09:17:30;;;;;;;;;;;22.50;34.30;;;;;;6176846;28;20054;-47
2023/04/20 09:20:34;;;;;;;0.73;0.60;;;22.80;34.70;;;;;;6177043;28;19926;-46
2023/04/20 09:23:37;;;;;;;0.80;0.60;;;22.40;34.20;;;;;;6174900;28;20122;-48
2023/04/20 09:26:38;;;;;;;;;;;22.40;34.50;;;;;;6176739;28;20129;-49
2023/04/20 09:29:40;;;;;;;0.63;0.60;;;22.30;34.60;;;;;;6176248;28;19969;-49
2023/04/20 09:32:41;;;;;;;1.30;0.60;;;22.00;34.40;;;;;;6176830;28;20106;-48
2023/04/20 09:35:44;;;;;;;0.90;0.50;;;22.40;34.40;;;;;;6178047;28;20133;-46
2023/04/20 09:38:46;;;;;;;1.10;0.50;;;22.50;34.50;;;;;;6175450;28;20046;-50
2023/04/20 09:41:50;;;;;;;0.73;0.57;;;22.60;34.60;;;;;;6176329;28;20091;-47
2023/04/20 09:44:53;;;;;;;0.73;0.50;;;22.50;34.60;;;;;;6176543;28;20038;-47
2023/04/20 09:48:03;;;;;;;0.90;0.50;;;22.90;34.80;;;;;;6176073;28;20046;-44
2023/04/20 09:51:06;;;;;;;0.88;0.80;;;22.40;34.50;;;;;;6183308;28;20049;-44
2023/04/20 09:54:09;;;;;;;0.65;0.60;;;22.60;34.70;;;;;;6176368;28;20043;-46
2023/04/20 09:57:14;;;;;;;0.73;0.63;;;22.50;34.80;;;;;;6176277;28;20388;-47
2023/04/20 10:00:16;;;;;;;1.73;0.60;;;22.40;34.70;;;;;;6174706;28;20042;-49
2023/04/20 10:03:19;;;;;;;0.70;0.60;;;22.60;35.10;;;;;;6177151;28;20078;-42
2023/04/20 10:06:23;;;;;;;0.77;0.50;;;22.50;35.30;;;;;;6174604;28;20113;-43
2023/04/20 10:09:25;;;;;;;0.50;0.50;;;22.30;34.70;;;;;;6175440;28;20562;-43
2023/04/20 10:12:28;;;;;;;0.52;0.43;;;22.50;34.50;;;;;;6177088;28;20479;-45
2023/04/20 10:15:37;;;;;;;0.60;0.55;;;22.10;34.90;;;;;;6176308;28;20042;-43
2023/04/20 10:18:40;;;;;;;0.65;0.60;;;22.60;34.80;;;;;;6174996;28;20070;-51
2023/04/20 10:21:47;;;;;;;0.70;0.70;;;22.50;34.90;;;;;;6175670;28;20045;-51
2023/04/20 10:24:51;;;;;;;2.17;0.60;;;22.50;34.80;;;;;;6175337;28;20046;-49
2023/04/20 10:27:55;;;;;;;0.52;0.52;;;22.70;33.80;;;;;;6175692;28;20544;-48
2023/04/20 10:30:57;;;;;;;1.00;0.50;;;22.50;34.90;;;;;;6173798;28;20042;-49
2023/04/20 10:33:58;;;;;;;0.98;0.60;;;22.60;35.30;;;;;;6175263;28;20042;-51
2023/04/20 10:37:08;;;;;;;;;;;22.60;35.30;;;;;;6175532;28;20050;-52
2023/04/20 10:40:10;;;;;;;0.50;0.45;;;22.80;35.60;;;;;;6175237;28;19929;-52
2023/04/20 10:43:20;;;;;;;0.88;0.60;;;22.60;35.30;;;;;;6175644;28;20373;-52
2023/04/20 10:46:23;;;;;;;0.52;0.40;;;22.40;35.40;;;;;;6173827;28;20058;-50
2023/04/20 10:49:25;;;;;;;0.40;0.40;;;22.50;35.00;;;;;;6174426;28;20043;-52
2023/04/20 10:52:36;;;;;;;0.60;0.50;;;22.50;35.10;;;;;;6175206;28;20514;-52
2023/04/20 10:55:38;;;;;;;0.52;0.40;;;22.60;35.10;;;;;;6174616;28;20110;-52
2023/04/20 10:58:40;;;;;;;0.40;0.40;;;22.50;35.00;;;;;;6174908;28;20051;-53
2023/04/20 11:01:42;;;;;;;0.75;0.40;;;22.80;34.90;;;;;;6175013;28;20042;-52
2023/04/20 11:04:43;;;;;;;0.70;0.50;;;22.60;34.90;;;;;;6173731;28;20154;-51
2023/04/20 11:07:50;;;;;;;;;;;22.60;34.90;;;;;;6175108;28;20158;-51
2023/04/20 11:10:51;;;;;;;0.55;0.50;;;22.90;35.20;;;;;;6174356;28;19922;-52
2023/04/20 11:14:05;;;;;;;0.70;0.50;;;22.80;35.00;;;;;;6174759;28;20398;-49
2023/04/20 11:17:10;;;;;;;0.47;0.45;;;22.70;34.60;;;;;;6174726;28;20039;-52
2023/04/20 11:20:16;;;;;;;0.60;0.47;;;22.80;34.60;;;;;;6174544;28;20042;-50
2023/04/20 11:23:22;;;;;;;0.32;0.30;;;22.80;34.30;;;;;;6174257;28;20054;-52
2023/04/20 11:26:35;;;;;;;0.50;0.50;;;22.40;33.90;;;;;;6157689;28;20411;-52
2023/04/20 11:29:38;;;;;;;0.57;0.55;;;22.50;34.10;;;;;;6174566;28;20039;-52
2023/04/20 11:32:40;;;;;;;0.73;0.70;;;22.60;34.00;;;;;;6174053;28;20547;-51
2023/04/20 11:35:43;;;;;;;0.52;0.50;;;22.90;34.30;;;;;;6173906;28;20078;-52
2023/04/20 11:38:45;;;;;;;0.60;0.45;;;22.80;33.90;;;;;;6174318;28;20139;-50
2023/04/20 11:41:46;;;;;;;0.52;0.40;;;22.80;33.70;;;;;;6174353;28;20058;-49
2023/04/20 11:44:48;;;;;;;0.80;0.50;;;22.80;33.60;;;;;;6180737;28;20505;-46
2023/04/20 11:47:51;;;;;;;2.15;0.40;;;22.90;33.50;;;;;;6182629;28;20039;-47
2023/04/20 11:50:55;;;;;;;1.50;0.45;;;22.50;33.10;;;;;;6174344;28;20051;-49
2023/04/20 11:53:57;;;;;;;0.50;0.50;;;22.60;33.00;;;;;;6175173;28;20046;-51
2023/04/20 11:56:59;;;;;;;0.50;0.40;;;22.80;33.50;;;;;;6174090;28;20089;-50
2023/04/20 12:00:01;;;;;;;0.40;0.40;;;22.70;32.80;;;;;;6173919;28;20061;-49
2023/04/20 12:03:02;;;;;;;0.70;0.40;;;22.50;32.50;;;;;;6174942;28;20089;-46
2023/04/20 12:06:09;;;;;;;0.60;0.50;;;22.70;32.40;;;;;;6343963;23;20082;-89
2023/04/20 12:09:12;;;;;;;0.55;0.52;;;23.10;31.80;;;;;;6199119;28;20031;-89
2023/04/20 12:12:14;;;;;;;0.30;0.30;;;24.30;33.90;;;;;;6198752;28;20053;-88
2023/04/20 12:15:19;;;;;;;0.80;0.60;;;24.50;33.70;;;;;;6197943;28;20054;-89
2023/04/20 12:18:22;;;;;;;0.60;0.50;;;23.40;33.20;;;;;;6202051;28;20038;-89
2023/04/20 12:21:24;;;;;;;0.57;0.45;;;22.30;32.30;;;;;;6200285;28;20050;-89
2023/04/20 12:28:20;;;;;;;0.50;0.50;;;22.50;32.00;;;;;;6191564;28;20046;-88
2023/04/20 12:31:23;;;;;;;1.10;0.55;;;23.60;32.90;;;;;;6180644;28;20482;-88
2023/04/20 12:34:27;;;;;;;1.08;0.40;;;19.80;30.70;;;;;;6178931;28;20537;-89
2023/04/20 12:37:29;;;;;;;0.30;0.30;;;23.00;32.40;;;;;;6180727;28;20050;-88
2023/04/20 12:40:31;;;;;;;0.50;0.50;;;22.80;32.00;;;;;;6179770;28;20097;-88
2023/04/20 12:43:33;;;;;;;0.75;0.45;;;24.80;33.40;;;;;;6179216;28;20047;-88
2023/04/20 12:46:35;;;;;;;0.45;0.40;;;23.00;31.80;;;;;;6196377;28;20043;-88
2023/04/20 12:49:37;;;;;;;0.95;0.40;;;23.10;31.60;;;;;;6222638;23;20078;-48
2023/04/20 12:52:39;;;;;;;0.45;0.40;;;23.10;30.40;;;;;;6891135;23;20057;-52
2023/04/20 12:55:40;;;;;;;0.45;0.40;;;23.20;30.30;;;;;;6644197;23;20121;-51
2023/04/20 12:58:43;;;;;;;1.27;0.35;;;23.30;30.20;;;;;;6178225;28;20042;-53
2023/04/20 13:01:45;;;;;;;0.50;0.40;;;23.40;30.10;;;;;;6187891;28;20053;-52
2023/04/20 13:04:46;;;;;;;0.60;0.50;;;23.00;29.90;;;;;;6187093;28;20053;-53
2023/04/20 13:07:48;;;;;;;0.90;0.50;;;23.20;29.90;;;;;;6190518;28;20394;-50
2023/04/20 13:10:49;;;;;;;;;;;23.10;29.70;;;;;;6194533;28;20043;-51
2023/04/20 13:13:51;;;;;;;1.27;0.30;;;23.30;29.90;;;;;;6178756;28;19922;-52
2023/04/20 13:16:56;;;;;;;0.47;0.40;;;23.30;29.70;;;;;;6177996;28;20055;-52
2023/04/20 13:19:57;;;;;;;1.13;0.60;;;23.10;29.50;;;;;;6181297;28;20054;-53
2023/04/20 13:22:59;;;;;;;;;;;23.10;29.30;;;;;;6178387;28;20050;-53
2023/04/20 13:26:01;;;;;;;3.60;0.40;;;23.70;29.70;;;;;;6175681;28;19922;-54
2023/04/20 13:29:03;;;;;;;0.50;0.47;;;23.10;29.20;;;;;;6177463;28;20043;-54
2023/04/20 13:32:05;;;;;;;1.40;0.40;;;23.20;29.10;;;;;;6177535;28;20101;-52
2023/04/20 13:35:11;;;;;;;0.80;0.40;;;23.20;28.90;;;;;;6176805;28;20055;-54
2023/04/20 13:38:12;;;;;;;0.60;0.30;;;23.40;28.80;;;;;;6176686;28;20181;-49
2023/04/20 13:41:13;;;;;;;;;;;23.40;28.70;;;;;;6176517;28;20047;-51
2023/04/20 13:44:17;;;;;;;0.70;0.60;;;23.50;28.90;;;;;;6176186;28;19926;-53
2023/04/20 13:47:20;;;;;;;0.50;0.50;;;23.50;28.50;;;;;;6176776;28;20046;-50
2023/04/20 13:50:21;;;;;;;0.50;0.40;;;23.60;28.60;;;;;;6176029;28;20074;-51
2023/04/20 13:53:23;;;;;;;0.40;0.38;;;23.90;28.60;;;;;;6176547;28;20049;-51
2023/04/20 13:56:25;;;;;;;1.27;0.50;;;23.50;28.30;;;;;;6178025;28;20050;-52
2023/04/20 13:59:27;;;;;;;0.98;0.50;;;23.70;28.30;;;;;;6176233;28;20039;-52
2023/04/20 14:02:29;;;;;;;0.47;0.38;;;23.70;28.30;;;;;;6175723;28;20495;-52
2023/04/20 14:05:31;;;;;;;1.02;0.50;;;23.60;28.10;;;;;;6176053;28;20062;-49
2023/04/20 14:08:35;;;;;;;;;;;23.40;28.00;;;;;;6176271;28;20491;-48
2023/04/20 14:11:36;;;;;;;0.32;0.32;;;23.40;28.10;;;;;;6175984;28;19928;-46
2023/04/20 14:14:39;;;;;;;0.40;0.30;;;23.50;28.10;;;;;;6184168;28;20039;-53
2023/04/20 14:17:40;;;;;;;0.50;0.45;;;23.50;28.10;;;;;;6177061;28;20494;-49
2023/04/20 14:20:48;;;;;;;1.30;0.52;;;23.60;28.10;;;;;;6175881;28;20152;-54
2023/04/20 14:23:52;;;;;;;1.05;0.50;;;23.60;28.10;;;;;;6175767;28;20054;-54
2023/04/20 14:26:53;;;;;;;0.75;0.57;;;23.50;28.10;;;;;;6175531;28;20042;-47
2023/04/20 14:29:56;;;;;;;0.32;0.30;;;23.70;28.20;;;;;;6175359;28;20043;-49
2023/04/20 14:32:59;;;;;;;0.63;0.50;;;23.70;28.10;;;;;;6175271;28;20043;-51
2023/04/20 14:36:04;;;;;;;1.13;0.43;;;23.80;28.10;;;;;;6175642;28;20043;-51
2023/04/20 14:39:06;;;;;;;0.63;0.52;;;23.90;28.20;;;;;;6175195;28;20502;-53
2023/04/20 14:42:07;;;;;;;0.50;0.50;;;23.60;28.10;;;;;;6175037;28;20053;-53
2023/04/20 14:45:11;;;;;;;0.55;0.47;;;23.90;28.20;;;;;;6175557;28;20380;-49
2023/04/20 14:48:12;;;;;;;0.60;0.60;;;23.80;28.10;;;;;;6175147;28;20396;-53
2023/04/20 14:51:15;;;;;;;0.60;0.60;;;23.60;28.10;;;;;;6173906;28;20046;-53
2023/04/20 14:54:16;;;;;;;0.52;0.50;;;24.00;28.30;;;;;;6174704;28;20046;-49
2023/04/20 14:57:18;;;;;;;1.15;0.60;;;23.80;28.20;;;;;;6174875;28;20054;-49
2023/04/20 15:00:22;;;;;;;0.90;0.57;;;23.90;28.50;;;;;;6174958;28;20498;-53
2023/04/20 15:03:27;;;;;;;0.40;0.40;;;23.80;28.30;;;;;;6175011;28;20049;-47
2023/04/20 15:06:29;;;;;;;0.50;0.50;;;24.20;28.40;;;;;;6174658;28;20492;-51
2023/04/20 15:09:31;;;;;;;0.82;0.50;;;24.00;28.40;;;;;;6174587;28;20054;-53
2023/04/20 15:12:32;;;;;;;1.00;0.80;;;23.80;28.40;;;;;;6174689;28;20039;-53
2023/04/20 15:15:34;;;;;;;0.80;0.50;;;24.50;28.60;;;;;;6174892;28;20039;-52
2023/04/20 15:18:51;;;;;;;0.57;0.50;;;24.00;28.40;;;;;;6174879;28;20499;-54
2023/04/20 15:21:52;;;;;;;0.80;0.60;;;24.00;28.40;;;;;;6174777;28;20089;-52
2023/04/20 15:24:54;;;;;;;;;;;24.10;28.40;;;;;;6175510;28;20058;-54
2023/04/20 15:27:58;;;;;;;0.63;0.50;;;24.10;28.50;;;;;;6174821;28;20279;-51
2023/04/20 15:31:01;;;;;;;0.50;0.45;;;23.80;28.30;;;;;;6174696;28;20043;-51
2023/04/20 15:34:02;;;;;;;1.02;0.70;;;24.10;28.50;;;;;;6174425;28;20046;-48
2023/04/20 15:37:04;;;;;;;0.65;0.65;;;24.00;28.40;;;;;;6174661;28;20491;-51
2023/04/20 15:40:07;;;;;;;0.93;0.70;;;24.10;28.50;;;;;;6174094;28;20117;-52
2023/04/20 15:43:09;;;;;;;0.80;0.50;;;24.10;28.50;;;;;;6174183;28;20054;-53
2023/04/20 15:46:11;;;;;;;0.73;0.60;;;24.20;28.60;;;;;;6174201;28;20368;-50
2023/04/20 15:49:12;;;;;;;0.80;0.70;;;23.90;28.50;;;;;;6172766;28;20061;-51
2023/04/20 15:52:14;;;;;;;1.40;0.80;;;24.30;28.70;;;;;;6174468;28;20483;-47
2023/04/20 15:55:16;;;;;;;1.50;0.73;;;24.20;28.70;;;;;;6173908;28;20058;-49
2023/04/20 15:58:17;;;;;;;0.90;0.70;;;24.20;28.80;;;;;;6173613;28;20039;-49
2023/04/20 16:01:23;;;;;;;1.50;0.68;;;23.80;28.70;;;;;;6174376;28;20042;-44
2023/04/20 16:04:26;;;;;;;0.98;0.60;;;24.20;28.80;;;;;;6174483;28;20106;-47
2023/04/20 16:07:28;;;;;;;0.85;0.70;;;24.10;28.80;;;;;;6173823;28;20043;-52
2023/04/20 16:10:30;;;;;;;0.60;0.60;;;24.00;28.80;;;;;;6174154;28;20526;-50
2023/04/20 16:13:36;;;;;;;0.85;0.70;;;24.20;28.90;;;;;;6173835;28;20483;-50
2023/04/20 16:16:39;;;;;;;0.75;0.60;;;24.20;28.90;;;;;;6173407;28;20050;-49
2023/04/20 16:19:41;;;;;;;0.93;0.63;;;24.10;28.90;;;;;;6174555;28;20039;-48
2023/04/20 16:22:45;;;;;;;0.75;0.75;;;24.10;28.90;;;;;;6173540;28;20047;-49
2023/04/20 16:25:48;;;;;;;0.60;0.60;;;24.10;28.90;;;;;;6173557;28;20093;-50
2023/04/20 16:28:50;;;;;;;0.70;0.60;;;24.10;29.00;;;;;;6173749;28;20070;-50
2023/04/20 16:31:52;;;;;;;0.80;0.70;;;24.10;29.00;;;;;;6173527;28;20118;-50
2023/04/20 16:34:53;;;;;;;0.55;0.52;;;24.00;29.00;;;;;;6173407;28;20058;-43
2023/04/20 16:37:55;;;;;;;0.60;0.52;;;24.20;29.20;;;;;;6172168;28;20423;-51
2023/04/20 16:40:57;;;;;;;1.63;0.68;;;24.20;29.20;;;;;;6172343;28;20066;-45
2023/04/20 16:43:58;;;;;;;0.70;0.60;;;24.20;29.30;;;;;;6174231;28;20039;-50
2023/04/20 16:47:00;;;;;;;0.63;0.60;;;24.00;29.20;;;;;;6173658;28;20043;-48
2023/04/20 16:50:05;;;;;;;0.70;0.60;;;23.90;29.70;;;;;;6173548;28;20046;-47
2023/04/20 16:53:08;;;;;;;0.85;0.73;;;24.20;29.40;;;;;;6174083;28;20043;-50
2023/04/20 16:56:10;;;;;;;0.70;0.70;;;24.10;29.40;;;;;;6171802;28;20054;-49
2023/04/20 16:59:12;;;;;;;0.52;0.45;;;23.90;29.30;;;;;;6173883;28;20471;-49
2023/04/20 17:02:16;;;;;;;0.95;0.65;;;24.00;29.40;;;;;;6173650;28;20122;-49
2023/04/20 17:05:18;;;;;;;0.73;0.60;;;24.20;29.50;;;;;;6173569;28;20043;-49
2023/04/20 17:08:21;;;;;;;1.00;0.73;;;23.90;29.30;;;;;;6173373;28;20047;-51
2023/04/20 17:11:22;;;;;;;0.70;0.50;;;24.10;29.40;;;;;;6173249;28;20042;-51
2023/04/20 17:14:24;;;;;;;0.50;0.50;;;24.20;29.50;;;;;;6174212;28;20101;-51
2023/04/20 17:17:27;;;;;;;0.82;0.80;;;24.00;29.40;;;;;;6177424;28;20403;-48
2023/04/20 17:20:28;;;;;;;0.57;0.50;;;23.80;29.40;;;;;;6177314;28;20039;-51